Time;durP1;ratioP1;P1;durP2;ratioP2;P2;SDS_P1;SDS_P2;PMS_P1;PMS_P2;Temp;Humidity;BMP_temperature;BMP_pressure;BME280_temperature;BME280_humidity;BME280_pressure;Samples;Min_cycle;Max_cycle;Signal;HPM_P1;HPM_P2
2023/06/29 00:01:59;;;;;;;27.33;24.83;;;17.80;99.90;;;;;;4992375;28;20444;-73
2023/06/29 00:04:26;;;;;;;28.10;25.65;;;17.70;99.90;;;;;;4990615;28;20152;-73
2023/06/29 00:06:53;;;;;;;27.95;25.33;;;17.70;99.90;;;;;;4993440;28;20141;-73
2023/06/29 00:09:22;;;;;;;27.80;25.17;;;17.70;99.90;;;;;;4992352;28;20100;-72
2023/06/29 00:11:49;;;;;;;28.50;25.92;;;17.70;99.90;;;;;;4991869;28;20061;-73
2023/06/29 00:14:16;;;;;;;26.20;23.80;;;17.60;99.90;;;;;;4972641;28;20057;-72
2023/06/29 00:16:43;;;;;;;26.00;23.70;;;17.60;99.90;;;;;;4993407;28;20099;-73
2023/06/29 00:19:11;;;;;;;25.73;23.33;;;17.60;99.90;;;;;;4990632;28;20448;-73
2023/06/29 00:21:38;;;;;;;27.35;25.05;;;17.70;99.90;;;;;;4990253;28;20037;-73
2023/06/29 00:24:05;;;;;;;27.30;24.55;;;17.70;99.90;;;;;;4991882;28;20050;-73
2023/06/29 00:26:33;;;;;;;25.70;23.48;;;17.70;99.90;;;;;;4989646;28;20077;-73
2023/06/29 00:28:59;;;;;;;28.63;25.75;;;17.70;99.90;;;;;;4978958;28;20053;-73
2023/06/29 00:31:26;;;;;;;27.67;25.38;;;17.60;99.90;;;;;;4991776;28;20062;-72
2023/06/29 00:33:53;;;;;;;27.90;25.60;;;17.50;99.90;;;;;;4991033;28;20057;-72
2023/06/29 00:36:20;;;;;;;27.60;25.30;;;17.50;99.90;;;;;;4978528;28;20049;-72
2023/06/29 00:38:48;;;;;;;29.25;26.67;;;17.50;99.90;;;;;;4996256;28;20050;-72
2023/06/29 00:41:16;;;;;;;27.10;24.88;;;17.50;99.90;;;;;;4992264;28;20081;-72
2023/06/29 00:43:45;;;;;;;26.83;24.63;;;17.70;99.90;;;;;;5007206;28;20034;-73
2023/06/29 00:46:15;;;;;;;25.40;23.30;;;17.60;99.90;;;;;;4994784;28;20468;-73
2023/06/29 00:48:41;;;;;;;26.20;23.88;;;17.60;99.90;;;;;;4991057;28;20038;-72
2023/06/29 00:51:08;;;;;;;26.15;24.10;;;17.60;99.90;;;;;;4991591;28;20500;-73
2023/06/29 00:53:37;;;;;;;26.63;24.25;;;17.50;99.90;;;;;;4992028;28;20416;-73
2023/06/29 00:56:04;;;;;;;27.60;25.02;;;17.60;99.90;;;;;;4973377;28;20066;-73
2023/06/29 00:58:31;;;;;;;26.48;24.30;;;17.50;99.90;;;;;;4992306;28;20626;-73
2023/06/29 01:00:57;;;;;;;26.50;24.20;;;17.50;99.90;;;;;;4991741;28;20049;-73
2023/06/29 01:03:25;;;;;;;27.10;24.77;;;17.40;99.90;;;;;;4991839;28;20084;-73
2023/06/29 01:05:56;;;;;;;28.02;25.40;;;17.40;99.90;;;;;;4989604;28;20107;-73
2023/06/29 01:08:29;;;;;;;28.08;25.77;;;17.50;99.90;;;;;;4992202;28;20050;-73
2023/06/29 01:10:57;;;;;;;27.63;25.00;;;17.40;99.90;;;;;;4990916;28;20061;-72
2023/06/29 01:13:27;;;;;;;26.42;24.00;;;17.50;99.90;;;;;;4990001;28;20116;-72
2023/06/29 01:15:54;;;;;;;25.70;23.45;;;17.60;99.90;;;;;;4994875;28;20532;-72
2023/06/29 01:18:23;;;;;;;27.48;24.83;;;17.60;99.90;;;;;;4991996;28;20681;-73
2023/06/29 01:20:52;;;;;;;25.83;23.73;;;17.60;99.90;;;;;;4988383;28;20065;-73
2023/06/29 01:23:25;;;;;;;25.92;23.75;;;17.60;99.90;;;;;;4990762;28;20042;-72
2023/06/29 01:25:54;;;;;;;26.15;24.20;;;17.60;99.90;;;;;;4989384;28;20042;-73
2023/06/29 01:28:24;;;;;;;27.60;25.40;;;17.60;99.90;;;;;;4992032;28;20068;-73
2023/06/29 01:30:51;;;;;;;27.52;24.90;;;17.50;99.90;;;;;;4993688;28;20046;-73
2023/06/29 01:33:19;;;;;;;28.60;25.85;;;17.40;99.90;;;;;;4994341;28;20073;-72
2023/06/29 01:35:48;;;;;;;27.63;25.02;;;17.30;99.90;;;;;;5006079;28;20045;-73
2023/06/29 01:38:24;;;;;;;27.13;24.58;;;17.30;99.90;;;;;;4993556;28;20165;-73
2023/06/29 01:40:53;;;;;;;27.30;24.73;;;17.30;99.90;;;;;;5002338;28;20056;-73
2023/06/29 01:43:21;;;;;;;27.88;25.23;;;17.30;99.90;;;;;;4994934;28;20049;-73
2023/06/29 01:45:49;;;;;;;27.75;24.83;;;17.30;99.90;;;;;;4990330;28;20069;-74
2023/06/29 01:48:17;;;;;;;26.70;24.35;;;17.30;99.90;;;;;;4992123;28;20042;-72
2023/06/29 01:50:48;;;;;;;26.67;24.33;;;17.40;99.90;;;;;;4991737;28;20100;-73
2023/06/29 01:53:15;;;;;;;26.90;24.48;;;17.40;99.90;;;;;;4991919;28;20115;-73
2023/06/29 01:55:41;;;;;;;26.58;24.13;;;17.40;99.90;;;;;;4989306;28;20057;-73
2023/06/29 01:58:10;;;;;;;27.17;24.38;;;17.50;99.90;;;;;;4990418;28;20099;-73
2023/06/29 02:00:36;;;;;;;27.30;24.95;;;17.50;99.90;;;;;;4991230;28;20046;-72
2023/06/29 02:03:04;;;;;;;27.63;24.73;;;17.50;99.90;;;;;;4975018;28;20072;-73
2023/06/29 02:05:31;;;;;;;26.40;23.75;;;17.50;99.90;;;;;;4989570;28;20056;-72
2023/06/29 02:08:00;;;;;;;26.95;24.35;;;17.50;99.90;;;;;;4988853;28;21943;-73
2023/06/29 02:10:27;;;;;;;27.60;25.17;;;17.50;99.90;;;;;;4987958;28;20077;-73
2023/06/29 02:12:54;;;;;;;25.70;23.42;;;17.50;99.90;;;;;;4989518;28;20041;-72
2023/06/29 02:15:21;;;;;;;26.02;23.73;;;17.30;99.90;;;;;;4975007;28;21268;-72
2023/06/29 02:17:48;;;;;;;27.13;24.63;;;17.30;99.90;;;;;;4992586;28;20053;-73
2023/06/29 02:20:17;;;;;;;26.55;24.02;;;17.20;99.90;;;;;;4987346;28;20054;-72
2023/06/29 02:22:43;;;;;;;27.48;25.17;;;17.00;99.90;;;;;;4989366;28;20050;-72
2023/06/29 02:25:13;;;;;;;25.25;23.10;;;17.20;99.90;;;;;;4992755;28;20053;-72
2023/06/29 02:27:40;;;;;;;24.52;22.45;;;17.10;99.90;;;;;;4989189;28;20129;-72
2023/06/29 02:30:08;;;;;;;24.45;22.52;;;17.20;99.90;;;;;;4992858;28;20121;-72
2023/06/29 02:32:35;;;;;;;25.35;22.67;;;17.10;99.90;;;;;;4988958;28;20049;-73
2023/06/29 02:35:03;;;;;;;23.92;21.83;;;17.00;99.90;;;;;;4971855;28;20134;-73
2023/06/29 02:37:30;;;;;;;24.15;21.92;;;17.00;99.90;;;;;;4972390;28;20050;-72
2023/06/29 02:39:57;;;;;;;23.55;21.27;;;17.00;99.90;;;;;;4989464;28;20045;-72
2023/06/29 02:42:23;;;;;;;23.15;21.15;;;16.90;99.90;;;;;;4991354;28;20485;-73
2023/06/29 02:44:50;;;;;;;23.40;21.48;;;16.90;99.90;;;;;;4990733;28;20042;-73
2023/06/29 02:47:17;;;;;;;24.25;21.77;;;16.90;99.90;;;;;;4989494;28;20038;-72
2023/06/29 02:49:45;;;;;;;25.23;23.13;;;16.90;99.90;;;;;;4987513;28;20057;-73
2023/06/29 02:52:14;;;;;;;25.35;23.00;;;17.00;99.90;;;;;;4990415;28;20735;-74
2023/06/29 02:54:40;;;;;;;25.70;23.52;;;17.20;99.90;;;;;;4987890;28;20060;-72
2023/06/29 02:57:08;;;;;;;25.83;23.63;;;17.30;99.90;;;;;;4988965;28;20093;-72
2023/06/29 02:59:34;;;;;;;25.15;22.95;;;17.30;99.90;;;;;;4990590;28;20061;-73
2023/06/29 03:02:01;;;;;;;27.75;25.42;;;17.20;99.90;;;;;;4988828;28;20042;-73
2023/06/29 03:04:28;;;;;;;27.17;24.48;;;17.20;99.90;;;;;;4970941;28;20068;-73
2023/06/29 03:06:55;;;;;;;25.38;23.27;;;17.10;99.90;;;;;;4988958;28;20046;-73
2023/06/29 03:09:24;;;;;;;25.52;23.25;;;17.20;99.90;;;;;;4989890;28;20054;-72
2023/06/29 03:11:51;;;;;;;25.55;23.23;;;17.30;99.90;;;;;;4988967;28;20460;-73
2023/06/29 03:14:18;;;;;;;25.85;23.58;;;17.30;99.90;;;;;;4988086;28;20044;-73
2023/06/29 03:16:45;;;;;;;25.77;23.38;;;17.30;99.90;;;;;;4987356;28;20084;-73
2023/06/29 03:19:11;;;;;;;25.00;22.98;;;17.20;99.90;;;;;;4985254;28;20050;-72
2023/06/29 03:21:38;;;;;;;26.85;24.17;;;17.10;99.90;;;;;;4988540;28;20050;-72
2023/06/29 03:24:05;;;;;;;27.00;24.25;;;17.20;99.90;;;;;;4990903;28;20049;-73
2023/06/29 03:26:32;;;;;;;26.27;23.88;;;17.10;99.90;;;;;;4989006;28;20717;-72
2023/06/29 03:28:59;;;;;;;25.42;23.02;;;17.10;99.90;;;;;;4988464;28;20049;-72
2023/06/29 03:31:26;;;;;;;23.77;21.38;;;17.20;99.90;;;;;;4972886;28;20046;-72
2023/06/29 03:33:53;;;;;;;24.73;22.83;;;17.20;99.90;;;;;;4989509;28;20104;-73
2023/06/29 03:36:20;;;;;;;24.00;21.80;;;17.10;99.90;;;;;;4990538;28;20064;-73
2023/06/29 03:38:47;;;;;;;24.98;22.63;;;17.20;99.90;;;;;;4991170;28;20057;-73
2023/06/29 03:41:13;;;;;;;24.17;21.85;;;17.20;99.90;;;;;;4989966;28;20069;-73
2023/06/29 03:43:40;;;;;;;24.52;22.52;;;17.20;99.90;;;;;;4989581;28;20122;-72
2023/06/29 03:46:07;;;;;;;26.48;24.30;;;17.40;99.90;;;;;;4993074;28;20132;-74
2023/06/29 03:48:34;;;;;;;27.13;24.80;;;17.40;99.90;;;;;;4992329;28;20595;-72
2023/06/29 03:51:01;;;;;;;27.50;24.63;;;17.30;99.90;;;;;;4995517;28;20085;-73
2023/06/29 03:53:28;;;;;;;27.00;24.05;;;17.20;99.90;;;;;;5011832;28;20225;-72
2023/06/29 03:55:54;;;;;;;25.42;23.10;;;17.30;99.90;;;;;;4992890;28;20298;-73
2023/06/29 03:58:21;;;;;;;26.80;24.58;;;17.30;99.90;;;;;;4995756;28;20037;-73
2023/06/29 04:00:48;;;;;;;27.10;24.98;;;17.30;99.90;;;;;;4995658;28;20080;-73
2023/06/29 04:03:14;;;;;;;27.00;24.75;;;17.30;99.90;;;;;;4994214;28;20041;-73
2023/06/29 04:05:41;;;;;;;26.95;24.70;;;17.30;99.90;;;;;;4993360;28;20567;-73
2023/06/29 04:08:08;;;;;;;25.95;23.83;;;17.40;99.90;;;;;;4993556;28;20127;-74
2023/06/29 04:10:35;;;;;;;25.48;23.17;;;17.40;99.90;;;;;;4989038;28;20038;-73
2023/06/29 04:13:02;;;;;;;25.02;23.08;;;17.50;99.90;;;;;;4991291;28;20030;-73
2023/06/29 04:15:30;;;;;;;25.52;23.13;;;17.40;99.90;;;;;;4990424;28;20727;-72
2023/06/29 04:17:57;;;;;;;25.98;23.48;;;17.50;99.90;;;;;;4995270;28;20112;-73
2023/06/29 04:20:24;;;;;;;27.45;25.10;;;17.60;99.90;;;;;;4989524;28;20100;-73
2023/06/29 04:22:50;;;;;;;26.15;23.92;;;17.70;99.90;;;;;;4991309;28;20539;-73
2023/06/29 04:25:18;;;;;;;25.48;23.27;;;17.70;99.90;;;;;;4991147;28;20064;-73
2023/06/29 04:27:44;;;;;;;25.00;22.80;;;17.50;99.90;;;;;;4995988;28;20076;-73
2023/06/29 04:30:12;;;;;;;25.35;23.05;;;17.50;99.90;;;;;;4990976;28;20634;-73
2023/06/29 04:32:39;;;;;;;25.23;23.42;;;17.40;99.90;;;;;;4989091;28;20050;-73
2023/06/29 04:35:09;;;;;;;25.65;23.10;;;17.30;99.90;;;;;;4977160;28;20042;-73
2023/06/29 04:37:42;;;;;;;25.98;23.83;;;17.50;99.90;;;;;;4992771;28;20428;-73
2023/06/29 04:40:10;;;;;;;26.45;24.48;;;17.50;99.90;;;;;;4976742;28;20133;-73
2023/06/29 04:42:43;;;;;;;26.67;24.58;;;17.60;99.90;;;;;;4992294;28;20129;-73
2023/06/29 04:45:12;;;;;;;27.05;24.65;;;17.80;99.90;;;;;;4976995;28;20042;-74
2023/06/29 04:47:40;;;;;;;28.58;26.13;;;17.80;99.90;;;;;;4975116;28;20038;-72
2023/06/29 04:50:08;;;;;;;27.70;25.15;;;17.80;99.90;;;;;;4993929;28;20693;-72
2023/06/29 04:52:36;;;;;;;26.63;24.33;;;17.90;99.90;;;;;;4988663;28;20053;-72
2023/06/29 04:55:04;;;;;;;26.70;24.35;;;18.00;99.90;;;;;;4976190;28;20148;-74
2023/06/29 04:57:31;;;;;;;28.67;25.95;;;18.20;99.90;;;;;;4991801;28;20057;-71
2023/06/29 04:59:58;;;;;;;28.05;25.55;;;18.20;99.90;;;;;;4993311;28;20049;-73
2023/06/29 05:02:25;;;;;;;28.67;26.20;;;18.20;99.90;;;;;;4978721;28;20156;-73
2023/06/29 05:04:52;;;;;;;28.95;26.35;;;18.20;99.90;;;;;;4995314;28;20723;-73
2023/06/29 05:07:19;;;;;;;29.10;26.75;;;18.20;99.90;;;;;;4990723;28;20046;-73
2023/06/29 05:09:46;;;;;;;29.88;27.40;;;18.30;99.90;;;;;;4990140;28;20049;-72
2023/06/29 05:12:14;;;;;;;30.67;28.08;;;18.30;99.90;;;;;;4994497;28;20774;-74
2023/06/29 05:14:41;;;;;;;30.40;27.70;;;18.30;99.90;;;;;;4993761;28;20034;-73
2023/06/29 05:17:07;;;;;;;28.33;25.95;;;18.30;99.90;;;;;;4993798;28;20045;-73
2023/06/29 05:19:36;;;;;;;29.70;27.02;;;18.40;99.90;;;;;;4992919;28;20042;-72
2023/06/29 05:22:03;;;;;;;30.40;27.77;;;18.40;99.90;;;;;;4997785;28;20038;-73
2023/06/29 05:24:30;;;;;;;29.02;26.38;;;18.50;99.90;;;;;;4992038;28;20058;-72
2023/06/29 05:26:57;;;;;;;27.92;25.70;;;18.60;99.90;;;;;;5009763;28;20042;-73
2023/06/29 05:29:24;;;;;;;28.77;26.02;;;18.60;99.90;;;;;;4995929;28;20077;-73
2023/06/29 05:31:51;;;;;;;28.73;26.40;;;18.60;99.90;;;;;;4992457;28;20054;-74
2023/06/29 05:34:18;;;;;;;29.52;26.90;;;18.60;99.90;;;;;;4991482;28;20704;-72
2023/06/29 05:36:45;;;;;;;30.13;27.15;;;18.70;99.90;;;;;;4987007;28;20049;-73
2023/06/29 05:39:12;;;;;;;29.92;27.35;;;18.80;99.90;;;;;;4981059;28;20045;-73
2023/06/29 05:41:39;;;;;;;30.35;27.58;;;18.80;99.90;;;;;;4991010;28;20042;-73
2023/06/29 05:44:06;;;;;;;30.10;27.58;;;18.80;99.90;;;;;;4991076;28;20042;-73
2023/06/29 05:46:36;;;;;;;29.70;27.10;;;18.90;99.90;;;;;;4995006;28;20096;-72
2023/06/29 05:49:03;;;;;;;30.77;28.05;;;19.00;99.90;;;;;;4995626;28;20046;-72
2023/06/29 05:51:31;;;;;;;30.23;27.55;;;19.00;99.90;;;;;;4975960;28;20046;-73
2023/06/29 05:53:58;;;;;;;29.95;27.38;;;19.20;99.90;;;;;;4992723;28;20714;-73
2023/06/29 05:56:26;;;;;;;29.00;26.60;;;19.20;99.90;;;;;;4991578;28;20046;-74
2023/06/29 05:58:53;;;;;;;29.08;26.88;;;19.30;99.90;;;;;;4992010;28;20042;-73
2023/06/29 06:01:20;;;;;;;30.48;27.98;;;19.70;99.90;;;;;;4990692;28;20048;-73
2023/06/29 06:03:47;;;;;;;30.38;27.95;;;19.90;99.90;;;;;;4991784;28;20049;-73
2023/06/29 06:06:15;;;;;;;30.90;28.25;;;19.90;99.90;;;;;;4995337;28;20045;-74
2023/06/29 06:08:41;;;;;;;31.05;28.60;;;19.90;99.90;;;;;;4994070;28;20041;-72
2023/06/29 06:11:08;;;;;;;32.95;29.90;;;20.10;99.90;;;;;;4992133;28;20049;-73
2023/06/29 06:13:35;;;;;;;33.25;30.25;;;20.10;99.90;;;;;;4992039;28;20069;-72
2023/06/29 06:16:04;;;;;;;32.72;30.15;;;20.00;99.90;;;;;;4995510;28;20066;-74
2023/06/29 06:18:31;;;;;;;32.30;29.80;;;20.00;99.90;;;;;;4989817;28;20041;-74
2023/06/29 06:20:57;;;;;;;33.60;30.88;;;20.00;99.90;;;;;;4992392;28;20085;-73
2023/06/29 06:23:24;;;;;;;33.67;31.02;;;20.00;99.90;;;;;;4990965;28;20082;-73
2023/06/29 06:25:51;;;;;;;32.95;30.25;;;20.10;99.90;;;;;;4992506;28;20097;-72
2023/06/29 06:28:18;;;;;;;32.63;30.02;;;20.20;99.90;;;;;;4992675;28;20046;-73
2023/06/29 06:30:46;;;;;;;33.08;30.45;;;20.40;99.90;;;;;;4992474;28;20038;-73
2023/06/29 06:33:14;;;;;;;31.77;29.30;;;20.50;99.90;;;;;;4993766;28;20081;-73
2023/06/29 06:35:41;;;;;;;32.10;29.50;;;20.60;99.90;;;;;;4991909;28;20108;-75
2023/06/29 06:38:08;;;;;;;31.10;28.60;;;20.70;99.90;;;;;;4994544;28;20132;-75
2023/06/29 06:40:35;;;;;;;31.58;28.88;;;20.70;99.90;;;;;;4998585;28;20057;-74
2023/06/29 06:43:02;;;;;;;31.67;28.95;;;20.50;99.90;;;;;;5000597;28;20671;-74
2023/06/29 06:45:29;;;;;;;31.13;28.63;;;20.70;99.90;;;;;;5000891;28;20096;-73
2023/06/29 06:47:55;;;;;;;31.33;28.88;;;20.80;99.90;;;;;;4996916;28;20137;-73
2023/06/29 06:50:22;;;;;;;33.47;30.52;;;21.00;99.90;;;;;;4992561;28;20053;-74
2023/06/29 06:52:50;;;;;;;31.98;29.60;;;21.00;99.90;;;;;;4975063;28;20042;-74
2023/06/29 06:55:17;;;;;;;32.25;29.65;;;21.00;99.90;;;;;;4991903;28;20050;-73
2023/06/29 06:57:44;;;;;;;31.55;28.77;;;21.00;99.90;;;;;;4993288;28;20045;-74
2023/06/29 07:00:12;;;;;;;32.28;29.63;;;21.00;99.90;;;;;;4991486;28;20124;-74
2023/06/29 07:02:39;;;;;;;34.58;31.90;;;21.10;99.90;;;;;;4994779;28;20050;-74
2023/06/29 07:05:07;;;;;;;34.58;31.65;;;21.30;99.90;;;;;;4992248;28;20704;-73
2023/06/29 07:07:33;;;;;;;33.97;31.15;;;21.50;99.90;;;;;;4995254;28;20138;-74
2023/06/29 07:10:00;;;;;;;34.08;31.40;;;21.60;99.90;;;;;;4990266;28;20049;-73
2023/06/29 07:12:27;;;;;;;34.30;31.80;;;21.80;99.90;;;;;;4991084;28;20042;-73
2023/06/29 07:14:54;;;;;;;34.28;31.67;;;22.00;99.90;;;;;;4992159;28;20068;-74
2023/06/29 07:17:21;;;;;;;35.65;32.88;;;22.20;99.90;;;;;;4990510;28;20049;-73
2023/06/29 07:19:47;;;;;;;37.10;33.88;;;22.30;99.90;;;;;;4990952;28;20515;-73
2023/06/29 07:22:18;;;;;;;36.20;33.25;;;22.20;99.90;;;;;;4990167;28;20054;-73
2023/06/29 07:24:48;;;;;;;37.92;34.95;;;22.40;99.90;;;;;;4989023;28;20046;-74
2023/06/29 07:27:15;;;;;;;40.40;36.95;;;22.60;99.90;;;;;;4977955;28;20614;-74
2023/06/29 07:29:42;;;;;;;41.55;38.20;;;22.60;99.90;;;;;;4991917;28;20577;-72
2023/06/29 07:32:09;;;;;;;40.20;37.22;;;22.80;99.90;;;;;;4990406;28;20045;-74
2023/06/29 07:34:36;;;;;;;40.40;37.25;;;23.10;99.90;;;;;;4996809;28;20190;-74
2023/06/29 07:37:03;;;;;;;39.78;36.63;;;23.20;99.90;;;;;;4993397;28;20050;-73
2023/06/29 07:39:30;;;;;;;38.45;35.35;;;23.30;99.90;;;;;;4996213;28;20057;-74
2023/06/29 07:41:56;;;;;;;41.33;37.78;;;23.40;99.90;;;;;;4995726;28;20073;-74
2023/06/29 07:44:23;;;;;;;40.85;37.28;;;23.60;99.90;;;;;;4993510;28;20081;-74
2023/06/29 07:46:51;;;;;;;41.42;37.13;;;23.60;99.90;;;;;;4975284;28;20038;-74
2023/06/29 07:49:18;;;;;;;37.90;34.80;;;23.80;99.90;;;;;;4995203;28;20085;-74
2023/06/29 07:51:45;;;;;;;38.85;35.33;;;23.70;99.90;;;;;;4995103;28;20038;-73
2023/06/29 07:54:12;;;;;;;40.60;37.38;;;23.50;99.90;;;;;;4993765;28;20099;-74
2023/06/29 07:56:39;;;;;;;38.28;35.15;;;23.30;99.90;;;;;;4997353;28;20076;-73
2023/06/29 07:59:09;;;;;;;39.75;36.30;;;23.20;99.90;;;;;;4998670;28;20697;-73
2023/06/29 08:01:39;;;;;;;39.97;36.53;;;23.10;99.90;;;;;;4992456;28;20069;-73
2023/06/29 08:04:07;;;;;;;40.25;36.53;;;22.90;99.90;;;;;;4992881;28;20038;-73
2023/06/29 08:06:34;;;;;;;40.13;36.30;;;23.00;99.90;;;;;;4996119;28;20034;-73
2023/06/29 08:09:04;;;;;;;39.40;35.97;;;23.00;99.90;;;;;;4996689;28;20764;-73
2023/06/29 08:11:31;;;;;;;40.55;37.03;;;23.10;99.90;;;;;;5000601;28;20582;-74
2023/06/29 08:13:58;;;;;;;40.47;36.67;;;23.20;99.90;;;;;;4998534;28;20045;-73
2023/06/29 08:16:24;;;;;;;39.22;35.75;;;23.10;99.90;;;;;;4995429;28;20046;-74
2023/06/29 08:18:51;;;;;;;39.25;35.83;;;23.10;99.90;;;;;;4994000;28;20057;-74
2023/06/29 08:21:18;;;;;;;40.50;36.38;;;22.90;99.90;;;;;;4995596;28;20046;-74
2023/06/29 08:23:46;;;;;;;39.25;35.47;;;22.90;99.90;;;;;;4997998;28;20140;-74
2023/06/29 08:26:13;;;;;;;40.28;36.55;;;22.90;99.90;;;;;;4995043;28;20096;-74
2023/06/29 08:28:40;;;;;;;41.65;38.05;;;23.00;99.90;;;;;;4997128;28;20100;-74
2023/06/29 08:31:07;;;;;;;40.25;36.53;;;23.00;99.90;;;;;;4993547;28;20038;-74
2023/06/29 08:33:34;;;;;;;42.47;38.58;;;23.00;99.90;;;;;;4992907;28;20108;-74
2023/06/29 08:36:01;;;;;;;41.25;37.63;;;22.90;99.90;;;;;;4992067;28;20129;-73
2023/06/29 08:38:27;;;;;;;41.40;37.70;;;22.80;99.90;;;;;;4998669;28;20080;-74
2023/06/29 08:40:58;;;;;;;41.00;37.40;;;22.80;99.90;;;;;;4993042;28;20487;-73
2023/06/29 08:43:25;;;;;;;43.10;38.90;;;22.80;99.90;;;;;;4993996;28;20046;-73
2023/06/29 08:45:52;;;;;;;41.15;37.65;;;22.90;99.90;;;;;;4992379;28;20095;-73
2023/06/29 08:48:20;;;;;;;41.10;37.55;;;22.90;99.90;;;;;;4995060;28;20667;-73
2023/06/29 08:50:54;;;;;;;41.20;37.80;;;23.00;99.90;;;;;;4993357;28;20038;-74
2023/06/29 08:53:21;;;;;;;41.50;37.85;;;22.90;99.90;;;;;;4994000;28;20049;-74
2023/06/29 08:55:50;;;;;;;42.08;37.92;;;23.00;99.90;;;;;;4991674;28;20042;-74
2023/06/29 08:58:20;;;;;;;43.17;39.15;;;23.20;99.90;;;;;;4995176;28;20078;-73
2023/06/29 09:00:47;;;;;;;42.60;38.78;;;23.30;99.90;;;;;;4992961;28;20272;-73
2023/06/29 09:03:15;;;;;;;43.55;39.60;;;23.40;99.90;;;;;;4990388;28;20412;-73
2023/06/29 09:05:45;;;;;;;43.47;39.83;;;23.40;99.90;;;;;;4978134;28;20044;-74
2023/06/29 09:08:12;;;;;;;44.65;40.42;;;23.30;99.90;;;;;;4995886;28;20049;-74
2023/06/29 09:10:40;;;;;;;43.85;40.25;;;23.30;99.90;;;;;;4991988;28;20034;-74
2023/06/29 09:13:09;;;;;;;44.60;39.97;;;23.40;99.90;;;;;;4993958;28;20046;-73
2023/06/29 09:15:39;;;;;;;43.22;39.70;;;23.40;99.90;;;;;;4994333;28;20056;-73
2023/06/29 09:18:07;;;;;;;44.15;40.55;;;23.50;99.90;;;;;;4991963;28;20538;-73
2023/06/29 09:20:35;;;;;;;44.67;40.85;;;23.40;99.90;;;;;;4993939;28;20292;-73
2023/06/29 09:23:05;;;;;;;44.65;40.85;;;23.30;99.90;;;;;;4994173;28;20100;-73
2023/06/29 09:25:39;;;;;;;44.20;40.40;;;23.40;99.90;;;;;;4994492;28;20747;-72
2023/06/29 09:28:07;;;;;;;44.38;40.45;;;23.50;99.90;;;;;;4993192;28;20104;-74
2023/06/29 09:30:39;;;;;;;43.38;39.65;;;23.80;99.90;;;;;;4994531;28;20088;-74
2023/06/29 09:33:11;;;;;;;44.38;40.58;;;23.90;99.90;;;;;;4976976;28;20054;-73
2023/06/29 09:35:43;;;;;;;44.67;40.65;;;24.00;99.90;;;;;;4998378;28;20070;-73
2023/06/29 09:38:10;;;;;;;45.05;41.08;;;24.00;99.90;;;;;;5000670;28;20053;-74
2023/06/29 09:40:51;;;;;;;43.40;39.78;;;24.10;99.90;;;;;;4997878;28;20041;-74
2023/06/29 09:43:20;;;;;;;44.42;40.17;;;24.20;99.90;;;;;;4974542;28;20524;-73
2023/06/29 09:45:47;;;;;;;43.92;39.97;;;24.20;99.90;;;;;;4993521;28;20048;-73
2023/06/29 09:48:15;;;;;;;45.88;41.97;;;24.10;99.90;;;;;;4993308;28;20034;-74
2023/06/29 09:50:51;;;;;;;44.22;40.03;;;24.10;99.90;;;;;;4989576;28;20034;-74
2023/06/29 09:53:31;;;;;;;44.83;40.92;;;24.20;99.90;;;;;;4993469;28;20483;-74
2023/06/29 09:55:59;;;;;;;44.85;40.85;;;24.30;99.90;;;;;;4989381;28;20030;-74
2023/06/29 09:58:30;;;;;;;44.35;40.50;;;24.40;99.90;;;;;;4991942;28;20054;-74
2023/06/29 10:01:00;;;;;;;41.95;38.03;;;24.30;99.90;;;;;;4991797;28;20112;-74
2023/06/29 10:03:27;;;;;;;42.08;38.55;;;24.40;99.90;;;;;;4991482;28;20133;-74
2023/06/29 10:06:00;;;;;;;43.10;39.35;;;24.60;99.90;;;;;;4992684;28;20049;-74
2023/06/29 10:08:29;;;;;;;43.58;39.35;;;24.60;99.90;;;;;;4992639;28;20044;-74
2023/06/29 10:11:01;;;;;;;43.70;39.50;;;24.50;99.90;;;;;;4991150;28;20107;-72
2023/06/29 10:13:34;;;;;;;42.60;38.92;;;24.60;99.90;;;;;;4976404;28;20053;-72
2023/06/29 10:16:05;;;;;;;45.00;40.90;;;24.70;99.90;;;;;;4994137;28;20100;-72
2023/06/29 10:18:36;;;;;;;40.88;37.47;;;24.90;99.90;;;;;;4991057;28;20125;-73
2023/06/29 10:21:03;;;;;;;45.40;41.60;;;25.00;99.90;;;;;;4992160;28;20030;-73
2023/06/29 10:23:32;;;;;;;45.00;41.25;;;25.00;99.90;;;;;;4988615;28;20054;-73
2023/06/29 10:26:00;;;;;;;44.13;40.22;;;25.00;99.90;;;;;;4987358;28;20068;-73
2023/06/29 10:28:27;;;;;;;46.40;42.25;;;25.30;99.90;;;;;;4996283;28;20046;-73
2023/06/29 10:30:59;;;;;;;47.50;43.40;;;25.30;99.90;;;;;;4990544;28;20112;-73
2023/06/29 10:33:26;;;;;;;46.30;42.35;;;25.20;99.90;;;;;;4992071;28;20045;-73
2023/06/29 10:35:57;;;;;;;45.95;41.75;;;25.40;99.90;;;;;;4990977;28;20092;-73
2023/06/29 10:38:32;;;;;;;45.17;41.28;;;25.40;99.90;;;;;;4995371;28;20048;-74
2023/06/29 10:40:59;;;;;;;45.13;41.17;;;25.50;99.90;;;;;;4984513;28;20134;-72
2023/06/29 10:43:27;;;;;;;45.97;41.97;;;25.40;99.90;;;;;;4989784;28;20053;-72
2023/06/29 10:45:54;;;;;;;46.45;42.55;;;25.30;99.90;;;;;;4991250;28;20050;-73
2023/06/29 10:48:21;;;;;;;46.47;42.40;;;25.10;99.90;;;;;;4990621;28;20220;-73
2023/06/29 10:51:11;;;;;;;47.83;43.50;;;25.30;99.90;;;;;;4988426;28;20061;-74
2023/06/29 10:53:40;;;;;;;46.65;42.25;;;25.40;99.90;;;;;;4992376;28;20061;-74
2023/06/29 10:56:31;;;;;;;47.30;42.83;;;25.60;99.90;;;;;;4993655;28;20078;-73
2023/06/29 10:58:59;;;;;;;48.65;44.50;;;25.70;99.90;;;;;;4991102;28;20471;-73
2023/06/29 11:01:26;;;;;;;46.15;42.45;;;25.60;99.90;;;;;;4991378;28;20082;-72
2023/06/29 11:03:53;;;;;;;45.70;41.95;;;25.70;99.90;;;;;;4996076;28;20052;-73
2023/06/29 11:06:20;;;;;;;46.10;42.25;;;25.60;99.90;;;;;;4993409;28;20065;-73
2023/06/29 11:09:10;;;;;;;46.13;42.05;;;25.50;99.90;;;;;;4990708;28;20056;-74
2023/06/29 11:11:37;;;;;;;45.72;41.50;;;25.40;99.90;;;;;;4995682;28;20076;-73
2023/06/29 11:14:04;;;;;;;46.50;42.47;;;25.20;99.90;;;;;;4991923;28;20216;-72
2023/06/29 11:16:32;;;;;;;46.70;42.53;;;25.10;99.90;;;;;;4993944;28;20534;-72
2023/06/29 11:19:02;;;;;;;46.67;42.75;;;24.90;99.90;;;;;;4992635;28;20639;-72
2023/06/29 11:21:29;;;;;;;45.35;41.28;;;24.80;99.90;;;;;;4991600;28;20552;-74
2023/06/29 11:23:56;;;;;;;45.25;41.20;;;24.70;99.90;;;;;;4992965;28;20054;-74
2023/06/29 11:26:24;;;;;;;47.00;42.75;;;24.60;99.90;;;;;;4993947;28;20108;-74
2023/06/29 11:28:51;;;;;;;46.60;42.60;;;24.50;99.90;;;;;;4993667;28;20030;-74
2023/06/29 11:31:20;;;;;;;47.50;43.50;;;24.40;99.90;;;;;;4993189;28;20040;-74
2023/06/29 11:33:50;;;;;;;47.03;42.90;;;24.40;99.90;;;;;;4991377;28;20038;-73
2023/06/29 11:36:28;;;;;;;47.05;42.63;;;24.40;99.90;;;;;;5005745;28;20045;-72
2023/06/29 11:39:08;;;;;;;48.42;43.88;;;24.30;99.90;;;;;;5002335;28;20046;-73
2023/06/29 11:41:40;;;;;;;47.53;43.00;;;24.40;99.90;;;;;;4990227;28;20069;-72
2023/06/29 11:44:08;;;;;;;48.85;44.38;;;24.40;99.90;;;;;;4986092;28;20050;-73
2023/06/29 11:46:42;;;;;;;48.53;44.25;;;24.50;99.90;;;;;;4993226;28;20608;-73
2023/06/29 11:49:09;;;;;;;47.05;42.63;;;24.40;99.90;;;;;;4994001;28;20069;-73
2023/06/29 11:51:38;;;;;;;47.28;42.80;;;24.40;99.90;;;;;;4993666;28;20042;-73
2023/06/29 11:54:07;;;;;;;47.15;42.72;;;24.30;99.90;;;;;;4977845;28;20046;-73
2023/06/29 11:56:36;;;;;;;44.72;40.63;;;24.00;99.90;;;;;;4994104;28;20073;-73
2023/06/29 11:59:15;;;;;;;43.70;39.55;;;23.80;99.90;;;;;;4990496;28;20107;-73
2023/06/29 12:01:47;;;;;;;42.10;38.28;;;23.80;99.90;;;;;;4991156;28;21370;-73
2023/06/29 12:04:14;;;;;;;43.40;39.20;;;23.80;99.90;;;;;;4995523;28;21328;-73
2023/06/29 12:06:58;;;;;;;43.55;39.33;;;23.60;99.90;;;;;;4994562;28;20045;-75
2023/06/29 12:09:32;;;;;;;42.65;38.85;;;23.50;99.90;;;;;;4991253;28;20042;-73
2023/06/29 12:12:01;;;;;;;43.35;39.08;;;23.30;99.90;;;;;;4991500;28;20030;-73
2023/06/29 12:14:29;;;;;;;44.95;40.60;;;23.30;99.90;;;;;;4976448;28;20050;-73
2023/06/29 12:16:57;;;;;;;45.78;41.38;;;23.10;99.90;;;;;;4992976;28;20046;-73
2023/06/29 12:19:36;;;;;;;46.20;41.92;;;23.10;99.90;;;;;;4992053;28;20053;-72
2023/06/29 12:22:15;;;;;;;46.45;41.67;;;22.90;99.90;;;;;;4979852;28;20045;-71
2023/06/29 12:24:48;;;;;;;48.65;43.83;;;22.90;99.90;;;;;;4997173;28;20696;-73
2023/06/29 12:27:15;;;;;;;47.35;42.95;;;22.80;99.90;;;;;;4992900;28;20052;-72
2023/06/29 12:29:41;;;;;;;47.33;42.65;;;22.80;99.90;;;;;;4993628;28;20066;-72
2023/06/29 12:32:08;;;;;;;48.78;43.92;;;22.70;99.90;;;;;;4991141;28;20045;-72
2023/06/29 12:34:35;;;;;;;47.03;42.58;;;22.70;99.90;;;;;;4994687;28;20313;-73